sensor_id;sensor_type;location;lat;lon;timestamp;P1;durP1;ratioP1;P2;durP2;ratioP2
17987;SDS011;9119;50.932;5.342;2023-05-13T00:00:13;36.00;;;21.03;;
17987;SDS011;9119;50.932;5.342;2023-05-13T00:02:40;33.17;;;17.07;;
17987;SDS011;9119;50.932;5.342;2023-05-13T00:05:06;20.93;;;14.90;;
17987;SDS011;9119;50.932;5.342;2023-05-13T00:07:32;23.80;;;15.33;;
17987;SDS011;9119;50.932;5.342;2023-05-13T00:09:57;72.47;;;38.43;;
17987;SDS011;9119;50.932;5.342;2023-05-13T00:12:23;38.47;;;20.67;;
17987;SDS011;9119;50.932;5.342;2023-05-13T00:14:49;29.47;;;17.63;;
17987;SDS011;9119;50.932;5.342;2023-05-13T00:17:14;180.20;;;95.13;;
17987;SDS011;9119;50.932;5.342;2023-05-13T00:19:40;44.43;;;23.27;;
17987;SDS011;9119;50.932;5.342;2023-05-13T00:22:06;69.03;;;40.30;;
17987;SDS011;9119;50.932;5.342;2023-05-13T00:24:32;107.03;;;59.13;;
17987;SDS011;9119;50.932;5.342;2023-05-13T00:26:58;25.17;;;15.97;;
17987;SDS011;9119;50.932;5.342;2023-05-13T00:29:23;36.67;;;21.03;;
17987;SDS011;9119;50.932;5.342;2023-05-13T00:31:49;118.03;;;67.63;;
17987;SDS011;9119;50.932;5.342;2023-05-13T00:34:15;233.37;;;129.53;;
17987;SDS011;9119;50.932;5.342;2023-05-13T00:36:42;155.57;;;82.30;;
17987;SDS011;9119;50.932;5.342;2023-05-13T00:39:08;142.57;;;76.10;;
17987;SDS011;9119;50.932;5.342;2023-05-13T00:41:35;166.83;;;88.93;;
17987;SDS011;9119;50.932;5.342;2023-05-13T00:44:01;49.90;;;29.20;;
17987;SDS011;9119;50.932;5.342;2023-05-13T00:46:31;45.67;;;25.37;;
17987;SDS011;9119;50.932;5.342;2023-05-13T00:48:57;52.63;;;29.70;;
17987;SDS011;9119;50.932;5.342;2023-05-13T00:51:24;27.33;;;18.13;;
17987;SDS011;9119;50.932;5.342;2023-05-13T00:53:50;117.07;;;70.97;;
17987;SDS011;9119;50.932;5.342;2023-05-13T00:56:19;55.10;;;31.80;;
17987;SDS011;9119;50.932;5.342;2023-05-13T00:58:45;52.77;;;32.60;;
17987;SDS011;9119;50.932;5.342;2023-05-13T01:07:03;25.47;;;16.40;;
17987;SDS011;9119;50.932;5.342;2023-05-13T01:12:32;26.03;;;16.10;;
17987;SDS011;9119;50.932;5.342;2023-05-13T01:17:56;145.30;;;75.67;;
17987;SDS011;9119;50.932;5.342;2023-05-13T01:20:32;47.53;;;25.67;;
17987;SDS011;9119;50.932;5.342;2023-05-13T01:22:58;36.10;;;22.40;;
17987;SDS011;9119;50.932;5.342;2023-05-13T01:25:24;71.03;;;40.43;;
17987;SDS011;9119;50.932;5.342;2023-05-13T01:27:50;54.07;;;30.27;;
17987;SDS011;9119;50.932;5.342;2023-05-13T01:30:16;39.67;;;25.07;;
17987;SDS011;9119;50.932;5.342;2023-05-13T01:32:43;72.87;;;37.17;;
17987;SDS011;9119;50.932;5.342;2023-05-13T01:35:09;107.70;;;54.93;;
17987;SDS011;9119;50.932;5.342;2023-05-13T01:37:36;51.93;;;30.43;;
17987;SDS011;9119;50.932;5.342;2023-05-13T01:40:03;50.43;;;29.30;;
17987;SDS011;9119;50.932;5.342;2023-05-13T01:42:31;32.23;;;19.70;;
17987;SDS011;9119;50.932;5.342;2023-05-13T01:44:58;43.83;;;23.83;;
17987;SDS011;9119;50.932;5.342;2023-05-13T01:47:24;111.27;;;61.43;;
17987;SDS011;9119;50.932;5.342;2023-05-13T01:49:49;27.77;;;17.33;;
17987;SDS011;9119;50.932;5.342;2023-05-13T01:52:15;39.27;;;23.17;;
17987;SDS011;9119;50.932;5.342;2023-05-13T01:54:41;58.63;;;36.63;;
17987;SDS011;9119;50.932;5.342;2023-05-13T01:57:06;35.63;;;17.30;;
17987;SDS011;9119;50.932;5.342;2023-05-13T01:59:32;33.97;;;18.20;;
17987;SDS011;9119;50.932;5.342;2023-05-13T02:01:58;26.77;;;15.70;;
17987;SDS011;9119;50.932;5.342;2023-05-13T02:04:23;23.87;;;14.43;;
17987;SDS011;9119;50.932;5.342;2023-05-13T02:06:49;26.80;;;16.13;;
17987;SDS011;9119;50.932;5.342;2023-05-13T02:09:15;25.23;;;14.07;;
17987;SDS011;9119;50.932;5.342;2023-05-13T02:11:41;27.80;;;16.50;;
17987;SDS011;9119;50.932;5.342;2023-05-13T02:14:07;26.90;;;16.23;;
17987;SDS011;9119;50.932;5.342;2023-05-13T02:16:32;30.43;;;17.73;;
17987;SDS011;9119;50.932;5.342;2023-05-13T02:18:58;24.37;;;16.00;;
17987;SDS011;9119;50.932;5.342;2023-05-13T02:21:24;22.43;;;14.40;;
17987;SDS011;9119;50.932;5.342;2023-05-13T02:23:50;32.90;;;17.23;;
17987;SDS011;9119;50.932;5.342;2023-05-13T02:26:15;24.53;;;15.33;;
17987;SDS011;9119;50.932;5.342;2023-05-13T02:28:42;53.70;;;33.37;;
17987;SDS011;9119;50.932;5.342;2023-05-13T02:31:07;25.50;;;16.53;;
17987;SDS011;9119;50.932;5.342;2023-05-13T02:33:33;22.03;;;15.23;;
17987;SDS011;9119;50.932;5.342;2023-05-13T02:35:59;26.30;;;17.87;;
17987;SDS011;9119;50.932;5.342;2023-05-13T02:38:24;27.37;;;16.83;;
17987;SDS011;9119;50.932;5.342;2023-05-13T02:40:50;35.67;;;23.43;;
17987;SDS011;9119;50.932;5.342;2023-05-13T02:43:16;29.07;;;18.90;;
17987;SDS011;9119;50.932;5.342;2023-05-13T02:45:42;35.00;;;20.97;;
17987;SDS011;9119;50.932;5.342;2023-05-13T02:48:08;26.50;;;16.53;;
17987;SDS011;9119;50.932;5.342;2023-05-13T02:50:35;24.33;;;15.47;;
17987;SDS011;9119;50.932;5.342;2023-05-13T02:53:00;23.57;;;15.83;;
17987;SDS011;9119;50.932;5.342;2023-05-13T02:55:26;25.27;;;15.93;;
17987;SDS011;9119;50.932;5.342;2023-05-13T02:57:52;25.33;;;15.60;;
17987;SDS011;9119;50.932;5.342;2023-05-13T03:00:18;27.70;;;16.53;;
17987;SDS011;9119;50.932;5.342;2023-05-13T03:02:43;25.53;;;16.37;;
17987;SDS011;9119;50.932;5.342;2023-05-13T03:05:09;23.77;;;15.97;;
17987;SDS011;9119;50.932;5.342;2023-05-13T03:07:35;24.50;;;16.67;;
17987;SDS011;9119;50.932;5.342;2023-05-13T03:10:00;23.47;;;15.63;;
17987;SDS011;9119;50.932;5.342;2023-05-13T03:12:26;25.63;;;16.27;;
17987;SDS011;9119;50.932;5.342;2023-05-13T03:14:52;25.17;;;16.23;;
17987;SDS011;9119;50.932;5.342;2023-05-13T03:17:17;20.80;;;15.23;;
17987;SDS011;9119;50.932;5.342;2023-05-13T03:19:43;24.00;;;16.23;;
17987;SDS011;9119;50.932;5.342;2023-05-13T03:22:09;24.80;;;16.00;;
17987;SDS011;9119;50.932;5.342;2023-05-13T03:24:34;24.37;;;16.10;;
17987;SDS011;9119;50.932;5.342;2023-05-13T03:27:00;27.50;;;16.73;;
17987;SDS011;9119;50.932;5.342;2023-05-13T03:29:26;26.23;;;17.77;;
17987;SDS011;9119;50.932;5.342;2023-05-13T03:31:51;28.40;;;16.73;;
17987;SDS011;9119;50.932;5.342;2023-05-13T03:34:17;25.20;;;15.67;;
17987;SDS011;9119;50.932;5.342;2023-05-13T03:36:43;23.63;;;15.13;;
17987;SDS011;9119;50.932;5.342;2023-05-13T03:39:09;23.20;;;16.43;;
17987;SDS011;9119;50.932;5.342;2023-05-13T03:41:34;26.23;;;16.23;;
17987;SDS011;9119;50.932;5.342;2023-05-13T03:44:00;22.30;;;15.57;;
17987;SDS011;9119;50.932;5.342;2023-05-13T03:46:26;24.77;;;16.30;;
17987;SDS011;9119;50.932;5.342;2023-05-13T03:48:52;27.00;;;16.77;;
17987;SDS011;9119;50.932;5.342;2023-05-13T03:51:19;28.37;;;16.67;;
17987;SDS011;9119;50.932;5.342;2023-05-13T03:53:48;23.77;;;16.07;;
17987;SDS011;9119;50.932;5.342;2023-05-13T03:56:14;31.43;;;16.03;;
17987;SDS011;9119;50.932;5.342;2023-05-13T03:58:40;28.60;;;16.40;;
17987;SDS011;9119;50.932;5.342;2023-05-13T04:01:06;25.30;;;15.37;;
17987;SDS011;9119;50.932;5.342;2023-05-13T04:03:32;34.20;;;16.77;;
17987;SDS011;9119;50.932;5.342;2023-05-13T04:05:58;26.20;;;16.63;;
17987;SDS011;9119;50.932;5.342;2023-05-13T04:08:24;25.30;;;16.47;;
17987;SDS011;9119;50.932;5.342;2023-05-13T04:10:51;24.73;;;15.73;;
17987;SDS011;9119;50.932;5.342;2023-05-13T04:13:16;25.47;;;16.10;;
17987;SDS011;9119;50.932;5.342;2023-05-13T04:15:42;25.23;;;15.63;;
17987;SDS011;9119;50.932;5.342;2023-05-13T04:18:08;24.97;;;17.00;;
17987;SDS011;9119;50.932;5.342;2023-05-13T04:20:36;23.60;;;16.03;;
17987;SDS011;9119;50.932;5.342;2023-05-13T04:23:03;26.13;;;16.97;;
17987;SDS011;9119;50.932;5.342;2023-05-13T04:25:29;25.93;;;16.33;;
17987;SDS011;9119;50.932;5.342;2023-05-13T04:27:55;22.57;;;15.30;;
17987;SDS011;9119;50.932;5.342;2023-05-13T04:30:21;27.77;;;16.90;;
17987;SDS011;9119;50.932;5.342;2023-05-13T04:32:47;24.97;;;17.03;;
17987;SDS011;9119;50.932;5.342;2023-05-13T04:35:12;28.17;;;15.57;;
17987;SDS011;9119;50.932;5.342;2023-05-13T04:37:38;24.23;;;16.67;;
17987;SDS011;9119;50.932;5.342;2023-05-13T04:40:04;23.03;;;14.87;;
17987;SDS011;9119;50.932;5.342;2023-05-13T04:42:31;25.17;;;16.20;;
17987;SDS011;9119;50.932;5.342;2023-05-13T04:44:57;25.90;;;16.93;;
17987;SDS011;9119;50.932;5.342;2023-05-13T04:47:22;27.67;;;17.23;;
17987;SDS011;9119;50.932;5.342;2023-05-13T04:49:48;30.27;;;16.23;;
17987;SDS011;9119;50.932;5.342;2023-05-13T04:52:14;24.80;;;15.93;;
17987;SDS011;9119;50.932;5.342;2023-05-13T04:54:39;28.13;;;16.57;;
17987;SDS011;9119;50.932;5.342;2023-05-13T04:57:06;27.37;;;17.60;;
17987;SDS011;9119;50.932;5.342;2023-05-13T04:59:32;22.67;;;15.67;;
17987;SDS011;9119;50.932;5.342;2023-05-13T05:01:59;33.27;;;15.60;;
17987;SDS011;9119;50.932;5.342;2023-05-13T05:04:24;22.10;;;14.73;;
17987;SDS011;9119;50.932;5.342;2023-05-13T05:06:51;26.00;;;15.80;;
17987;SDS011;9119;50.932;5.342;2023-05-13T05:09:16;25.90;;;14.57;;
17987;SDS011;9119;50.932;5.342;2023-05-13T05:11:42;22.37;;;15.27;;
17987;SDS011;9119;50.932;5.342;2023-05-13T05:14:08;29.93;;;15.80;;
17987;SDS011;9119;50.932;5.342;2023-05-13T05:16:34;22.27;;;15.13;;
17987;SDS011;9119;50.932;5.342;2023-05-13T05:19:00;26.00;;;16.37;;
17987;SDS011;9119;50.932;5.342;2023-05-13T05:21:25;26.00;;;14.83;;
17987;SDS011;9119;50.932;5.342;2023-05-13T05:23:51;20.93;;;14.60;;
17987;SDS011;9119;50.932;5.342;2023-05-13T05:26:17;22.23;;;15.07;;
17987;SDS011;9119;50.932;5.342;2023-05-13T05:28:43;25.30;;;15.93;;
17987;SDS011;9119;50.932;5.342;2023-05-13T05:31:09;28.70;;;15.60;;
17987;SDS011;9119;50.932;5.342;2023-05-13T05:33:35;26.40;;;16.53;;
17987;SDS011;9119;50.932;5.342;2023-05-13T05:36:02;24.63;;;15.30;;
17987;SDS011;9119;50.932;5.342;2023-05-13T05:38:27;23.77;;;14.80;;
17987;SDS011;9119;50.932;5.342;2023-05-13T05:40:53;23.03;;;15.13;;
17987;SDS011;9119;50.932;5.342;2023-05-13T05:43:19;27.87;;;16.43;;
17987;SDS011;9119;50.932;5.342;2023-05-13T05:45:45;25.37;;;15.57;;
17987;SDS011;9119;50.932;5.342;2023-05-13T05:48:11;21.60;;;14.97;;
17987;SDS011;9119;50.932;5.342;2023-05-13T05:50:37;25.43;;;15.53;;
17987;SDS011;9119;50.932;5.342;2023-05-13T05:53:03;25.97;;;15.90;;
17987;SDS011;9119;50.932;5.342;2023-05-13T05:55:28;23.27;;;15.20;;
17987;SDS011;9119;50.932;5.342;2023-05-13T05:57:56;23.13;;;14.53;;
17987;SDS011;9119;50.932;5.342;2023-05-13T06:00:22;21.47;;;14.90;;
17987;SDS011;9119;50.932;5.342;2023-05-13T06:02:48;22.67;;;14.33;;
17987;SDS011;9119;50.932;5.342;2023-05-13T06:05:14;22.20;;;14.90;;
17987;SDS011;9119;50.932;5.342;2023-05-13T06:07:40;34.17;;;16.10;;
17987;SDS011;9119;50.932;5.342;2023-05-13T06:10:06;23.23;;;14.17;;
17987;SDS011;9119;50.932;5.342;2023-05-13T06:12:32;23.53;;;14.60;;
17987;SDS011;9119;50.932;5.342;2023-05-13T06:14:58;23.03;;;15.17;;
17987;SDS011;9119;50.932;5.342;2023-05-13T06:17:25;28.43;;;15.57;;
17987;SDS011;9119;50.932;5.342;2023-05-13T06:19:51;33.43;;;15.97;;
17987;SDS011;9119;50.932;5.342;2023-05-13T06:22:16;26.70;;;15.53;;
17987;SDS011;9119;50.932;5.342;2023-05-13T06:24:42;31.90;;;14.83;;
17987;SDS011;9119;50.932;5.342;2023-05-13T06:27:12;27.50;;;14.50;;
17987;SDS011;9119;50.932;5.342;2023-05-13T06:29:38;24.97;;;15.17;;
17987;SDS011;9119;50.932;5.342;2023-05-13T06:32:04;23.43;;;14.63;;
17987;SDS011;9119;50.932;5.342;2023-05-13T06:34:30;21.57;;;15.00;;
17987;SDS011;9119;50.932;5.342;2023-05-13T06:36:56;28.53;;;14.43;;
17987;SDS011;9119;50.932;5.342;2023-05-13T06:39:22;23.93;;;13.33;;
17987;SDS011;9119;50.932;5.342;2023-05-13T06:41:47;19.60;;;12.70;;
17987;SDS011;9119;50.932;5.342;2023-05-13T06:44:13;19.17;;;10.03;;
17987;SDS011;9119;50.932;5.342;2023-05-13T06:46:39;21.67;;;13.00;;
17987;SDS011;9119;50.932;5.342;2023-05-13T06:49:05;22.97;;;13.30;;
17987;SDS011;9119;50.932;5.342;2023-05-13T06:51:31;23.03;;;13.33;;
17987;SDS011;9119;50.932;5.342;2023-05-13T06:53:58;20.57;;;12.70;;
17987;SDS011;9119;50.932;5.342;2023-05-13T06:56:23;19.87;;;12.03;;
17987;SDS011;9119;50.932;5.342;2023-05-13T06:58:50;23.13;;;12.07;;
17987;SDS011;9119;50.932;5.342;2023-05-13T07:01:16;24.60;;;12.80;;
17987;SDS011;9119;50.932;5.342;2023-05-13T07:03:42;19.97;;;12.47;;
17987;SDS011;9119;50.932;5.342;2023-05-13T07:06:08;19.13;;;12.13;;
17987;SDS011;9119;50.932;5.342;2023-05-13T07:08:34;20.73;;;12.10;;
17987;SDS011;9119;50.932;5.342;2023-05-13T07:11:00;19.13;;;12.10;;
17987;SDS011;9119;50.932;5.342;2023-05-13T07:13:26;22.73;;;12.30;;
17987;SDS011;9119;50.932;5.342;2023-05-13T07:15:53;22.97;;;11.93;;
17987;SDS011;9119;50.932;5.342;2023-05-13T07:18:18;17.63;;;11.13;;
17987;SDS011;9119;50.932;5.342;2023-05-13T07:20:44;20.23;;;11.60;;
17987;SDS011;9119;50.932;5.342;2023-05-13T07:23:10;19.60;;;11.70;;
17987;SDS011;9119;50.932;5.342;2023-05-13T07:25:36;20.97;;;12.27;;
17987;SDS011;9119;50.932;5.342;2023-05-13T07:28:02;22.77;;;12.30;;
17987;SDS011;9119;50.932;5.342;2023-05-13T07:30:28;18.13;;;10.87;;
17987;SDS011;9119;50.932;5.342;2023-05-13T07:32:54;19.33;;;11.30;;
17987;SDS011;9119;50.932;5.342;2023-05-13T07:35:19;22.87;;;11.33;;
17987;SDS011;9119;50.932;5.342;2023-05-13T07:37:45;18.43;;;10.60;;
17987;SDS011;9119;50.932;5.342;2023-05-13T07:40:11;18.47;;;11.17;;
17987;SDS011;9119;50.932;5.342;2023-05-13T07:42:38;16.17;;;10.27;;
17987;SDS011;9119;50.932;5.342;2023-05-13T07:45:04;15.40;;;9.87;;
17987;SDS011;9119;50.932;5.342;2023-05-13T07:47:31;16.30;;;10.70;;
17987;SDS011;9119;50.932;5.342;2023-05-13T07:49:57;17.33;;;10.67;;
17987;SDS011;9119;50.932;5.342;2023-05-13T07:52:23;14.70;;;10.37;;
17987;SDS011;9119;50.932;5.342;2023-05-13T07:54:49;19.33;;;10.40;;
17987;SDS011;9119;50.932;5.342;2023-05-13T07:57:15;18.63;;;11.03;;
17987;SDS011;9119;50.932;5.342;2023-05-13T07:59:40;21.70;;;10.77;;
17987;SDS011;9119;50.932;5.342;2023-05-13T08:02:06;18.23;;;10.00;;
17987;SDS011;9119;50.932;5.342;2023-05-13T08:04:32;18.87;;;10.23;;
17987;SDS011;9119;50.932;5.342;2023-05-13T08:06:59;21.10;;;10.80;;
17987;SDS011;9119;50.932;5.342;2023-05-13T08:09:25;21.07;;;10.03;;
17987;SDS011;9119;50.932;5.342;2023-05-13T08:11:51;24.97;;;10.20;;
17987;SDS011;9119;50.932;5.342;2023-05-13T08:14:18;16.57;;;9.17;;
17987;SDS011;9119;50.932;5.342;2023-05-13T08:16:44;19.30;;;10.00;;
17987;SDS011;9119;50.932;5.342;2023-05-13T08:19:10;15.03;;;9.53;;
17987;SDS011;9119;50.932;5.342;2023-05-13T08:21:38;14.93;;;9.90;;
17987;SDS011;9119;50.932;5.342;2023-05-13T08:24:03;16.40;;;10.07;;
17987;SDS011;9119;50.932;5.342;2023-05-13T08:26:30;20.83;;;9.67;;
17987;SDS011;9119;50.932;5.342;2023-05-13T08:28:56;12.53;;;9.60;;
17987;SDS011;9119;50.932;5.342;2023-05-13T08:31:21;18.83;;;9.70;;
17987;SDS011;9119;50.932;5.342;2023-05-13T08:33:49;13.93;;;8.70;;
17987;SDS011;9119;50.932;5.342;2023-05-13T08:36:15;17.43;;;9.57;;
17987;SDS011;9119;50.932;5.342;2023-05-13T08:38:41;15.43;;;9.23;;
17987;SDS011;9119;50.932;5.342;2023-05-13T08:41:08;21.23;;;8.90;;
17987;SDS011;9119;50.932;5.342;2023-05-13T08:43:38;13.80;;;9.20;;
17987;SDS011;9119;50.932;5.342;2023-05-13T08:46:08;17.10;;;9.70;;
17987;SDS011;9119;50.932;5.342;2023-05-13T08:48:35;15.50;;;8.23;;
17987;SDS011;9119;50.932;5.342;2023-05-13T08:51:03;22.67;;;9.07;;
17987;SDS011;9119;50.932;5.342;2023-05-13T08:53:29;14.40;;;7.77;;
17987;SDS011;9119;50.932;5.342;2023-05-13T08:55:55;14.93;;;8.37;;
17987;SDS011;9119;50.932;5.342;2023-05-13T08:58:21;13.93;;;7.53;;
17987;SDS011;9119;50.932;5.342;2023-05-13T09:00:47;14.87;;;7.87;;
17987;SDS011;9119;50.932;5.342;2023-05-13T09:03:13;14.43;;;8.17;;
17987;SDS011;9119;50.932;5.342;2023-05-13T09:05:41;12.83;;;8.27;;
17987;SDS011;9119;50.932;5.342;2023-05-13T09:08:08;13.67;;;7.90;;
17987;SDS011;9119;50.932;5.342;2023-05-13T09:10:34;13.00;;;7.87;;
17987;SDS011;9119;50.932;5.342;2023-05-13T09:13:00;12.07;;;7.47;;
17987;SDS011;9119;50.932;5.342;2023-05-13T09:15:26;14.50;;;7.43;;
17987;SDS011;9119;50.932;5.342;2023-05-13T09:18:00;13.73;;;7.37;;
17987;SDS011;9119;50.932;5.342;2023-05-13T09:20:27;16.23;;;7.80;;
17987;SDS011;9119;50.932;5.342;2023-05-13T09:22:57;12.87;;;7.27;;
17987;SDS011;9119;50.932;5.342;2023-05-13T09:25:31;11.63;;;6.23;;
17987;SDS011;9119;50.932;5.342;2023-05-13T09:27:58;10.37;;;6.77;;
17987;SDS011;9119;50.932;5.342;2023-05-13T09:30:26;8.47;;;6.33;;
17987;SDS011;9119;50.932;5.342;2023-05-13T09:35:53;13.27;;;7.37;;
17987;SDS011;9119;50.932;5.342;2023-05-13T09:38:20;15.10;;;6.63;;
17987;SDS011;9119;50.932;5.342;2023-05-13T09:43:16;12.60;;;7.20;;
17987;SDS011;9119;50.932;5.342;2023-05-13T09:45:46;15.33;;;7.87;;
17987;SDS011;9119;50.932;5.342;2023-05-13T09:48:12;14.43;;;7.30;;
17987;SDS011;9119;50.932;5.342;2023-05-13T09:50:47;11.33;;;7.17;;
17987;SDS011;9119;50.932;5.342;2023-05-13T09:53:14;10.80;;;7.23;;
17987;SDS011;9119;50.932;5.342;2023-05-13T09:55:58;13.13;;;6.80;;
17987;SDS011;9119;50.932;5.342;2023-05-13T09:58:25;14.47;;;7.17;;
17987;SDS011;9119;50.932;5.342;2023-05-13T10:00:53;12.97;;;6.90;;
17987;SDS011;9119;50.932;5.342;2023-05-13T10:03:19;13.20;;;6.50;;
17987;SDS011;9119;50.932;5.342;2023-05-13T10:05:45;10.27;;;6.87;;
17987;SDS011;9119;50.932;5.342;2023-05-13T10:08:13;10.17;;;6.07;;
17987;SDS011;9119;50.932;5.342;2023-05-13T10:10:41;11.37;;;6.60;;
17987;SDS011;9119;50.932;5.342;2023-05-13T10:13:11;13.43;;;6.70;;
17987;SDS011;9119;50.932;5.342;2023-05-13T10:15:48;18.07;;;6.23;;
17987;SDS011;9119;50.932;5.342;2023-05-13T10:18:15;16.67;;;6.83;;
17987;SDS011;9119;50.932;5.342;2023-05-13T10:20:42;13.33;;;6.60;;
17987;SDS011;9119;50.932;5.342;2023-05-13T10:23:08;12.73;;;6.00;;
17987;SDS011;9119;50.932;5.342;2023-05-13T10:25:35;13.37;;;6.20;;
17987;SDS011;9119;50.932;5.342;2023-05-13T10:28:02;16.17;;;6.70;;
17987;SDS011;9119;50.932;5.342;2023-05-13T10:30:29;13.73;;;6.67;;
17987;SDS011;9119;50.932;5.342;2023-05-13T10:32:58;10.20;;;5.77;;
17987;SDS011;9119;50.932;5.342;2023-05-13T10:35:26;8.97;;;5.50;;
17987;SDS011;9119;50.932;5.342;2023-05-13T10:45:47;12.80;;;6.47;;
17987;SDS011;9119;50.932;5.342;2023-05-13T10:48:14;12.10;;;5.40;;
17987;SDS011;9119;50.932;5.342;2023-05-13T10:50:54;13.07;;;5.63;;
17987;SDS011;9119;50.932;5.342;2023-05-13T10:53:24;8.17;;;5.43;;
17987;SDS011;9119;50.932;5.342;2023-05-13T10:55:56;8.37;;;5.63;;
17987;SDS011;9119;50.932;5.342;2023-05-13T10:58:30;12.03;;;5.30;;
17987;SDS011;9119;50.932;5.342;2023-05-13T11:03:48;12.33;;;4.83;;
17987;SDS011;9119;50.932;5.342;2023-05-13T11:06:17;9.53;;;4.77;;
17987;SDS011;9119;50.932;5.342;2023-05-13T11:08:48;16.03;;;5.03;;
17987;SDS011;9119;50.932;5.342;2023-05-13T11:13:50;18.03;;;8.00;;
17987;SDS011;9119;50.932;5.342;2023-05-13T11:16:16;10.23;;;5.57;;
17987;SDS011;9119;50.932;5.342;2023-05-13T11:18:43;9.20;;;4.90;;
17987;SDS011;9119;50.932;5.342;2023-05-13T11:21:08;10.00;;;5.53;;
17987;SDS011;9119;50.932;5.342;2023-05-13T11:26:40;9.60;;;5.50;;
17987;SDS011;9119;50.932;5.342;2023-05-13T11:29:10;10.70;;;5.63;;
17987;SDS011;9119;50.932;5.342;2023-05-13T11:31:44;10.43;;;4.93;;
17987;SDS011;9119;50.932;5.342;2023-05-13T11:34:15;8.73;;;5.40;;
17987;SDS011;9119;50.932;5.342;2023-05-13T11:36:45;11.43;;;5.47;;
17987;SDS011;9119;50.932;5.342;2023-05-13T11:39:41;9.80;;;5.53;;
17987;SDS011;9119;50.932;5.342;2023-05-13T11:42:07;10.60;;;4.93;;
17987;SDS011;9119;50.932;5.342;2023-05-13T11:44:34;7.47;;;4.87;;
17987;SDS011;9119;50.932;5.342;2023-05-13T11:47:01;11.77;;;5.60;;
17987;SDS011;9119;50.932;5.342;2023-05-13T11:49:36;7.93;;;4.50;;
17987;SDS011;9119;50.932;5.342;2023-05-13T11:54:51;9.07;;;4.27;;
17987;SDS011;9119;50.932;5.342;2023-05-13T11:57:22;9.47;;;4.50;;
17987;SDS011;9119;50.932;5.342;2023-05-13T11:59:53;10.27;;;5.10;;
17987;SDS011;9119;50.932;5.342;2023-05-13T12:02:23;11.17;;;4.20;;
17987;SDS011;9119;50.932;5.342;2023-05-13T12:04:50;10.17;;;5.10;;
17987;SDS011;9119;50.932;5.342;2023-05-13T12:07:23;14.77;;;4.67;;
17987;SDS011;9119;50.932;5.342;2023-05-13T12:09:50;14.53;;;4.70;;
17987;SDS011;9119;50.932;5.342;2023-05-13T12:12:18;6.63;;;3.40;;
17987;SDS011;9119;50.932;5.342;2023-05-13T12:14:44;14.40;;;4.37;;
17987;SDS011;9119;50.932;5.342;2023-05-13T12:17:14;9.67;;;4.33;;
17987;SDS011;9119;50.932;5.342;2023-05-13T12:22:30;6.53;;;3.80;;
17987;SDS011;9119;50.932;5.342;2023-05-13T12:24:56;5.97;;;3.80;;
17987;SDS011;9119;50.932;5.342;2023-05-13T12:27:27;8.47;;;4.10;;
17987;SDS011;9119;50.932;5.342;2023-05-13T12:29:53;7.90;;;4.50;;
17987;SDS011;9119;50.932;5.342;2023-05-13T12:32:19;7.63;;;4.47;;
17987;SDS011;9119;50.932;5.342;2023-05-13T12:34:48;10.10;;;4.27;;
17987;SDS011;9119;50.932;5.342;2023-05-13T12:37:15;8.23;;;4.40;;
17987;SDS011;9119;50.932;5.342;2023-05-13T12:39:41;7.87;;;4.10;;
17987;SDS011;9119;50.932;5.342;2023-05-13T12:42:17;7.00;;;4.40;;
17987;SDS011;9119;50.932;5.342;2023-05-13T12:44:43;7.77;;;4.50;;
17987;SDS011;9119;50.932;5.342;2023-05-13T12:47:09;12.17;;;4.67;;
17987;SDS011;9119;50.932;5.342;2023-05-13T12:49:50;7.60;;;4.60;;
17987;SDS011;9119;50.932;5.342;2023-05-13T12:52:20;10.77;;;4.17;;
17987;SDS011;9119;50.932;5.342;2023-05-13T12:54:46;8.30;;;3.80;;
17987;SDS011;9119;50.932;5.342;2023-05-13T12:57:14;5.80;;;3.47;;
17987;SDS011;9119;50.932;5.342;2023-05-13T12:59:41;10.57;;;3.80;;
17987;SDS011;9119;50.932;5.342;2023-05-13T13:02:07;7.37;;;3.50;;
17987;SDS011;9119;50.932;5.342;2023-05-13T13:04:33;9.33;;;3.93;;
17987;SDS011;9119;50.932;5.342;2023-05-13T13:06:59;8.10;;;4.10;;
17987;SDS011;9119;50.932;5.342;2023-05-13T13:09:25;14.13;;;4.93;;
17987;SDS011;9119;50.932;5.342;2023-05-13T13:11:50;7.40;;;3.57;;
17987;SDS011;9119;50.932;5.342;2023-05-13T13:14:16;7.10;;;3.57;;
17987;SDS011;9119;50.932;5.342;2023-05-13T13:16:42;12.43;;;3.67;;
17987;SDS011;9119;50.932;5.342;2023-05-13T13:19:08;5.17;;;3.10;;
17987;SDS011;9119;50.932;5.342;2023-05-13T13:21:34;10.27;;;3.27;;
17987;SDS011;9119;50.932;5.342;2023-05-13T13:24:00;9.20;;;3.17;;
17987;SDS011;9119;50.932;5.342;2023-05-13T13:26:25;10.20;;;4.10;;
17987;SDS011;9119;50.932;5.342;2023-05-13T13:28:51;12.77;;;4.70;;
17987;SDS011;9119;50.932;5.342;2023-05-13T13:31:17;10.30;;;4.30;;
17987;SDS011;9119;50.932;5.342;2023-05-13T13:33:43;9.03;;;3.87;;
17987;SDS011;9119;50.932;5.342;2023-05-13T13:36:08;11.13;;;3.90;;
17987;SDS011;9119;50.932;5.342;2023-05-13T13:38:34;6.80;;;3.60;;
17987;SDS011;9119;50.932;5.342;2023-05-13T13:41:00;9.27;;;4.00;;
17987;SDS011;9119;50.932;5.342;2023-05-13T13:43:25;5.93;;;3.50;;
17987;SDS011;9119;50.932;5.342;2023-05-13T13:45:51;6.57;;;3.67;;
17987;SDS011;9119;50.932;5.342;2023-05-13T13:48:17;6.85;;;3.25;;
17987;SDS011;9119;50.932;5.342;2023-05-13T13:50:43;7.27;;;3.97;;
17987;SDS011;9119;50.932;5.342;2023-05-13T13:53:08;5.27;;;3.57;;
17987;SDS011;9119;50.932;5.342;2023-05-13T13:55:35;9.63;;;4.10;;
17987;SDS011;9119;50.932;5.342;2023-05-13T13:58:00;7.20;;;3.90;;
17987;SDS011;9119;50.932;5.342;2023-05-13T14:00:26;9.13;;;4.23;;
17987;SDS011;9119;50.932;5.342;2023-05-13T14:02:52;7.17;;;4.00;;
17987;SDS011;9119;50.932;5.342;2023-05-13T14:05:17;10.47;;;3.80;;
17987;SDS011;9119;50.932;5.342;2023-05-13T14:07:43;7.97;;;3.70;;
17987;SDS011;9119;50.932;5.342;2023-05-13T14:10:10;5.67;;;3.63;;
17987;SDS011;9119;50.932;5.342;2023-05-13T14:12:36;4.87;;;4.00;;
17987;SDS011;9119;50.932;5.342;2023-05-13T14:15:02;8.50;;;4.23;;
17987;SDS011;9119;50.932;5.342;2023-05-13T14:17:28;8.63;;;4.00;;
17987;SDS011;9119;50.932;5.342;2023-05-13T14:19:54;6.47;;;4.03;;
17987;SDS011;9119;50.932;5.342;2023-05-13T14:22:20;4.70;;;3.90;;
17987;SDS011;9119;50.932;5.342;2023-05-13T14:24:47;6.60;;;3.93;;
17987;SDS011;9119;50.932;5.342;2023-05-13T14:27:14;8.20;;;3.70;;
17987;SDS011;9119;50.932;5.342;2023-05-13T14:29:40;5.80;;;4.53;;
17987;SDS011;9119;50.932;5.342;2023-05-13T14:32:06;5.87;;;3.40;;
17987;SDS011;9119;50.932;5.342;2023-05-13T14:34:32;6.17;;;3.53;;
17987;SDS011;9119;50.932;5.342;2023-05-13T14:36:58;6.50;;;4.00;;
17987;SDS011;9119;50.932;5.342;2023-05-13T14:39:24;6.10;;;3.60;;
17987;SDS011;9119;50.932;5.342;2023-05-13T14:41:50;10.77;;;4.53;;
17987;SDS011;9119;50.932;5.342;2023-05-13T14:44:15;6.87;;;4.40;;
17987;SDS011;9119;50.932;5.342;2023-05-13T14:46:41;6.27;;;4.03;;
17987;SDS011;9119;50.932;5.342;2023-05-13T14:49:07;10.57;;;4.37;;
17987;SDS011;9119;50.932;5.342;2023-05-13T14:51:33;9.17;;;4.07;;
17987;SDS011;9119;50.932;5.342;2023-05-13T14:53:59;7.77;;;3.90;;
17987;SDS011;9119;50.932;5.342;2023-05-13T14:56:25;10.00;;;3.63;;
17987;SDS011;9119;50.932;5.342;2023-05-13T14:58:51;10.93;;;3.87;;
17987;SDS011;9119;50.932;5.342;2023-05-13T15:01:17;5.57;;;3.97;;
17987;SDS011;9119;50.932;5.342;2023-05-13T15:03:43;5.80;;;4.37;;
17987;SDS011;9119;50.932;5.342;2023-05-13T15:06:09;6.37;;;4.17;;
17987;SDS011;9119;50.932;5.342;2023-05-13T15:08:35;7.27;;;4.20;;
17987;SDS011;9119;50.932;5.342;2023-05-13T15:11:01;7.97;;;4.47;;
17987;SDS011;9119;50.932;5.342;2023-05-13T15:13:28;10.20;;;4.17;;
17987;SDS011;9119;50.932;5.342;2023-05-13T15:15:59;6.13;;;3.97;;
17987;SDS011;9119;50.932;5.342;2023-05-13T15:18:26;9.87;;;3.90;;